createdAt,value
2022-08-26T00:01:36.422Z,4.53
2022-08-26T00:04:03.896Z,4.72
2022-08-26T00:06:32.424Z,4.88
2022-08-26T00:08:59.257Z,4.82
2022-08-26T00:11:27.221Z,4.70
2022-08-26T00:13:55.607Z,5.00
2022-08-26T00:16:24.942Z,4.38
2022-08-26T00:18:53.086Z,5.00
2022-08-26T00:21:20.815Z,4.70
2022-08-26T00:23:48.107Z,5.15
2022-08-26T00:26:15.035Z,4.55
2022-08-26T00:28:41.555Z,4.88
2022-08-26T00:31:11.127Z,5.15
2022-08-26T00:33:38.979Z,4.47
2022-08-26T00:36:06.381Z,4.75
2022-08-26T00:38:35.056Z,4.40
2022-08-26T00:41:05.186Z,4.50
2022-08-26T00:43:47.593Z,4.68
2022-08-26T00:46:18.467Z,4.57
2022-08-26T00:48:49.324Z,4.47
2022-08-26T00:51:19.680Z,4.88
2022-08-26T00:53:52.009Z,4.90
2022-08-26T00:56:26.788Z,4.72
2022-08-26T00:58:53.743Z,4.53
2022-08-26T01:01:23.141Z,4.80
2022-08-26T01:03:50.154Z,4.57
2022-08-26T01:06:16.652Z,4.85
2022-08-26T01:08:43.553Z,4.80
2022-08-26T01:11:11.797Z,5.32
2022-08-26T01:13:39.679Z,4.75
2022-08-26T01:16:10.595Z,4.65
2022-08-26T01:18:39.581Z,5.25
2022-08-26T01:21:36.303Z,5.05
2022-08-26T01:24:07.552Z,5.30
2022-08-26T01:26:43.192Z,5.32
2022-08-26T01:29:15.800Z,4.95
2022-08-26T01:31:45.852Z,5.25
2022-08-26T01:34:38.945Z,5.72
2022-08-26T01:37:15.822Z,5.75
2022-08-26T01:39:45.061Z,5.38
2022-08-26T01:42:14.562Z,5.60
2022-08-26T01:44:49.057Z,5.25
2022-08-26T01:47:18.031Z,5.90
2022-08-26T01:49:47.017Z,6.35
2022-08-26T01:52:20.485Z,5.75
2022-08-26T01:54:50.530Z,6.45
2022-08-26T01:57:20.195Z,7.90
2022-08-26T01:59:49.143Z,7.63
2022-08-26T02:02:15.804Z,7.70
2022-08-26T02:04:58.129Z,7.50
2022-08-26T02:07:26.771Z,6.20
2022-08-26T02:09:54.649Z,6.40
2022-08-26T02:12:21.605Z,5.78
2022-08-26T02:14:53.243Z,6.13
2022-08-26T02:17:34.947Z,5.60
2022-08-26T02:20:02.479Z,5.88
2022-08-26T02:22:30.797Z,5.43
2022-08-26T02:25:00.243Z,5.53
2022-08-26T02:27:33.510Z,5.53
2022-08-26T02:30:11.460Z,5.20
2022-08-26T02:32:38.436Z,5.53
2022-08-26T02:35:08.126Z,5.30
2022-08-26T02:37:35.213Z,5.38
2022-08-26T02:40:03.218Z,5.70
2022-08-26T02:42:29.813Z,5.20
2022-08-26T02:44:56.276Z,5.20
2022-08-26T02:47:24.891Z,5.57
2022-08-26T02:49:51.860Z,5.13
2022-08-26T02:52:18.644Z,5.13
2022-08-26T02:54:45.464Z,5.40
2022-08-26T02:57:12.087Z,5.53
2022-08-26T02:59:41.762Z,5.13
2022-08-26T03:02:10.531Z,5.15
2022-08-26T03:04:38.976Z,5.28
2022-08-26T03:07:06.562Z,4.68
2022-08-26T03:09:33.366Z,5.00
2022-08-26T03:12:00.259Z,5.30
2022-08-26T03:14:27.180Z,5.78
2022-08-26T03:16:54.712Z,5.57
2022-08-26T03:19:23.776Z,5.13
2022-08-26T03:21:51.760Z,5.53
2022-08-26T03:24:19.250Z,5.07
2022-08-26T03:26:52.087Z,5.57
2022-08-26T03:29:38.577Z,5.40
2022-08-26T03:32:06.167Z,5.25
2022-08-26T03:34:32.969Z,5.22
2022-08-26T03:36:59.437Z,5.25
2022-08-26T03:39:26.299Z,5.15
2022-08-26T03:41:53.700Z,5.03
2022-08-26T03:44:21.099Z,5.90
2022-08-26T03:46:47.600Z,5.07
2022-08-26T03:49:15.209Z,5.00
2022-08-26T03:51:42.167Z,5.32
2022-08-26T03:54:09.227Z,5.40
2022-08-26T03:56:36.645Z,5.50
2022-08-26T03:59:04.279Z,6.43
2022-08-26T04:01:31.335Z,5.85
2022-08-26T04:04:00.291Z,5.38
2022-08-26T04:06:30.598Z,6.05
2022-08-26T04:08:59.945Z,5.68
2022-08-26T04:11:32.126Z,6.28
2022-08-26T04:14:03.880Z,5.60
2022-08-26T04:16:30.626Z,5.55
2022-08-26T04:18:58.013Z,5.35
2022-08-26T04:21:25.916Z,5.88
2022-08-26T04:23:53.972Z,5.57
2022-08-26T04:26:22.144Z,5.80
2022-08-26T04:28:49.973Z,6.03
2022-08-26T04:31:18.112Z,5.78
2022-08-26T04:33:47.550Z,6.30
2022-08-26T04:36:17.435Z,6.70
2022-08-26T04:38:46.352Z,6.43
2022-08-26T04:41:15.446Z,6.60
2022-08-26T04:43:43.491Z,6.15
2022-08-26T04:46:13.024Z,6.70
2022-08-26T04:48:41.300Z,6.32
2022-08-26T04:51:09.787Z,5.30
2022-08-26T04:53:36.994Z,6.20
2022-08-26T04:56:04.524Z,6.60
2022-08-26T04:58:31.866Z,5.22
2022-08-26T05:00:58.528Z,5.32
2022-08-26T05:03:30.291Z,5.55
2022-08-26T05:05:58.007Z,6.03
2022-08-26T05:08:24.576Z,5.85
2022-08-26T05:10:56.725Z,5.65
2022-08-26T05:13:27.431Z,5.82
2022-08-26T05:15:54.337Z,5.70
2022-08-26T05:18:23.454Z,5.38
2022-08-26T05:20:54.557Z,5.55
2022-08-26T05:23:23.198Z,5.53
2022-08-26T05:25:55.834Z,5.53
2022-08-26T05:28:26.287Z,5.40
2022-08-26T05:30:52.885Z,5.82
2022-08-26T05:33:19.659Z,5.22
2022-08-26T05:35:46.728Z,6.20
2022-08-26T05:38:17.414Z,6.38
2022-08-26T05:40:47.135Z,4.97
2022-08-26T05:43:14.373Z,4.95
2022-08-26T05:45:46.261Z,6.05
2022-08-26T05:48:14.542Z,5.55
2022-08-26T05:50:47.309Z,5.32
2022-08-26T05:53:16.416Z,5.82
2022-08-26T05:55:47.898Z,5.63
2022-08-26T05:58:15.008Z,5.38
2022-08-26T06:00:44.585Z,5.88
2022-08-26T06:03:11.231Z,5.45
2022-08-26T06:05:41.647Z,5.85
2022-08-26T06:08:11.526Z,6.00
2022-08-26T06:10:50.939Z,5.93
2022-08-26T06:13:21.341Z,5.88
2022-08-26T06:15:50.160Z,6.75
2022-08-26T06:18:20.220Z,5.70
2022-08-26T06:20:54.614Z,6.25
2022-08-26T06:23:42.669Z,5.28
2022-08-26T06:26:11.056Z,5.65
2022-08-26T06:28:37.792Z,5.07
2022-08-26T06:31:04.507Z,5.10
2022-08-26T06:33:32.411Z,5.65
2022-08-26T06:35:58.983Z,5.60
2022-08-26T06:38:25.428Z,5.43
2022-08-26T06:40:54.859Z,5.75
2022-08-26T06:43:23.790Z,5.88
2022-08-26T06:45:51.275Z,5.90
2022-08-26T06:48:20.864Z,5.90
2022-08-26T06:50:48.231Z,6.28
2022-08-26T06:53:17.132Z,5.60
2022-08-26T06:55:46.111Z,6.13
2022-08-26T06:58:14.184Z,5.00
2022-08-26T07:00:41.689Z,4.95
2022-08-26T07:03:14.101Z,4.70
2022-08-26T07:05:40.713Z,5.10
2022-08-26T07:08:07.156Z,5.30
2022-08-26T07:10:35.549Z,4.60
2022-08-26T07:13:02.571Z,4.90
2022-08-26T07:15:31.365Z,4.60
2022-08-26T07:17:58.116Z,4.93
2022-08-26T07:20:24.596Z,4.55
2022-08-26T07:22:51.452Z,4.43
2022-08-26T07:25:19.298Z,5.13
2022-08-26T07:27:46.796Z,4.88
2022-08-26T07:30:20.770Z,5.53
2022-08-26T07:32:47.472Z,4.25
2022-08-26T07:35:14.640Z,4.28
2022-08-26T07:37:42.399Z,4.43
2022-08-26T07:40:09.837Z,5.22
2022-08-26T07:42:36.337Z,4.70
2022-08-26T07:45:02.955Z,5.82
2022-08-26T07:47:31.469Z,5.00
2022-08-26T07:49:58.813Z,5.38
2022-08-26T07:52:29.001Z,4.35
2022-08-26T07:55:01.031Z,4.65
2022-08-26T07:57:28.672Z,4.05
2022-08-26T07:59:55.787Z,4.32
2022-08-26T08:02:23.327Z,3.83
2022-08-26T08:04:49.858Z,3.88
2022-08-26T08:07:16.540Z,4.75
2022-08-26T08:09:43.015Z,3.95
2022-08-26T08:12:09.517Z,4.00
2022-08-26T08:14:41.015Z,3.72
2022-08-26T08:17:08.457Z,4.07
2022-08-26T08:19:36.710Z,4.35
2022-08-26T08:22:05.161Z,4.65
2022-08-26T08:24:43.784Z,4.60
2022-08-26T08:27:10.697Z,4.45
2022-08-26T08:29:37.508Z,4.75
2022-08-26T08:32:04.966Z,4.40
2022-08-26T08:34:31.531Z,4.35
2022-08-26T08:36:58.302Z,4.20
2022-08-26T08:39:26.012Z,4.93
2022-08-26T08:42:32.383Z,4.68
2022-08-26T08:45:06.271Z,4.70
2022-08-26T08:47:38.748Z,4.30
2022-08-26T08:50:17.403Z,4.93
2022-08-26T08:52:49.366Z,4.72
2022-08-26T08:55:18.267Z,4.50
2022-08-26T08:58:02.181Z,4.22
2022-08-26T09:00:39.683Z,4.70
2022-08-26T09:03:17.065Z,4.70
2022-08-26T09:05:48.780Z,4.78
2022-08-26T09:08:21.595Z,4.47
2022-08-26T09:10:53.943Z,4.68
2022-08-26T09:13:25.362Z,3.83
2022-08-26T09:16:31.276Z,4.38
2022-08-26T09:19:22.712Z,4.30
2022-08-26T09:22:00.250Z,4.45
2022-08-26T09:24:29.387Z,4.28
2022-08-26T09:26:58.186Z,4.20
2022-08-26T09:29:27.772Z,4.15
2022-08-26T09:32:22.056Z,3.70
2022-08-26T09:35:01.137Z,4.07
2022-08-26T09:40:59.168Z,4.10
2022-08-26T09:43:28.398Z,4.20
2022-08-26T09:46:12.442Z,4.90
2022-08-26T09:48:40.580Z,4.40
2022-08-26T09:51:28.082Z,4.32
2022-08-26T09:54:00.660Z,4.78
2022-08-26T09:56:34.634Z,6.00
2022-08-26T09:59:02.187Z,5.63
2022-08-26T10:01:32.148Z,6.07
2022-08-26T10:04:07.334Z,5.43
2022-08-26T10:06:39.187Z,5.63
2022-08-26T10:09:09.684Z,4.75
2022-08-26T10:11:44.425Z,5.20
2022-08-26T10:14:17.467Z,4.68
2022-08-26T10:17:08.920Z,4.25
2022-08-26T10:19:41.627Z,4.32
2022-08-26T10:22:49.064Z,3.90
2022-08-26T10:25:23.061Z,3.55
2022-08-26T10:28:11.890Z,5.13
2022-08-26T10:30:46.916Z,5.07
2022-08-26T10:33:15.453Z,4.55
2022-08-26T10:35:56.735Z,4.18
2022-08-26T10:38:34.283Z,3.60
2022-08-26T10:41:13.688Z,3.38
2022-08-26T10:43:50.484Z,3.63
2022-08-26T10:46:22.436Z,3.42
2022-08-26T10:49:00.021Z,2.70
2022-08-26T10:51:36.495Z,2.80
2022-08-26T10:54:50.844Z,2.70
2022-08-26T10:57:25.309Z,2.60
2022-08-26T11:00:22.813Z,2.72
2022-08-26T11:02:55.080Z,2.50
2022-08-26T11:05:23.609Z,2.90
2022-08-26T11:08:13.587Z,2.47
2022-08-26T11:10:53.577Z,2.80
2022-08-26T11:13:20.020Z,2.80
2022-08-26T11:15:58.603Z,3.00
2022-08-26T11:18:40.326Z,5.57
2022-08-26T11:21:44.950Z,7.75
2022-08-26T11:24:40.631Z,4.38
2022-08-26T11:27:12.175Z,3.10
2022-08-26T11:29:56.385Z,3.67
2022-08-26T11:32:34.916Z,3.25
2022-08-26T11:35:06.743Z,3.45
2022-08-26T11:37:41.225Z,3.17
2022-08-26T11:40:12.255Z,3.35
2022-08-26T11:42:49.918Z,2.95
2022-08-26T11:45:24.332Z,3.35
2022-08-26T11:47:51.207Z,3.28
2022-08-26T11:50:26.784Z,2.58
2022-08-26T11:53:04.726Z,2.70
2022-08-26T11:55:37.151Z,2.88
2022-08-26T11:58:05.077Z,2.35
2022-08-26T12:00:52.411Z,2.40
2022-08-26T12:03:22.995Z,4.03
2022-08-26T12:05:52.022Z,2.60
2022-08-26T12:08:23.412Z,2.88
2022-08-26T12:11:10.044Z,2.92
2022-08-26T12:13:39.091Z,1.95
2022-08-26T12:16:06.624Z,2.20
2022-08-26T12:18:37.521Z,1.92
2022-08-26T12:21:16.178Z,2.42
2022-08-26T12:23:47.980Z,2.00
2022-08-26T12:26:21.559Z,2.17
2022-08-26T12:29:26.754Z,2.55
2022-08-26T12:32:11.083Z,2.33
2022-08-26T12:34:37.869Z,2.35
2022-08-26T12:37:04.556Z,2.60
2022-08-26T12:39:37.595Z,2.88
2022-08-26T12:42:07.788Z,2.35
2022-08-26T12:44:54.313Z,2.60
2022-08-26T12:47:35.133Z,2.38
2022-08-26T12:50:33.488Z,2.65
2022-08-26T12:53:01.428Z,2.97
2022-08-26T12:55:39.395Z,2.50
2022-08-26T12:58:13.473Z,2.35
2022-08-26T13:00:41.780Z,3.45
2022-08-26T13:03:28.432Z,2.25
2022-08-26T13:06:15.688Z,2.35
2022-08-26T13:08:48.297Z,2.58
2022-08-26T13:11:21.219Z,2.50
2022-08-26T13:14:23.680Z,2.40
2022-08-26T13:16:51.418Z,2.33
2022-08-26T13:19:25.519Z,2.13
2022-08-26T13:22:01.494Z,2.42
2022-08-26T13:24:34.451Z,2.55
2022-08-26T13:27:02.120Z,3.05
2022-08-26T13:29:28.713Z,2.58
2022-08-26T13:31:55.513Z,2.50
2022-08-26T13:34:23.365Z,2.67
2022-08-26T13:36:54.031Z,2.38
2022-08-26T13:39:21.630Z,2.25
2022-08-26T13:41:48.250Z,2.40
2022-08-26T13:44:14.780Z,2.53
2022-08-26T13:46:41.773Z,2.70
2022-08-26T13:49:09.156Z,2.05
2022-08-26T13:51:37.616Z,2.58
2022-08-26T13:54:05.124Z,2.70
2022-08-26T13:56:32.722Z,2.53
2022-08-26T13:59:01.128Z,2.85
2022-08-26T14:01:29.345Z,2.70
2022-08-26T14:03:55.824Z,2.85
2022-08-26T14:06:22.356Z,2.90
2022-08-26T14:08:49.373Z,3.45
2022-08-26T14:11:15.840Z,2.70
2022-08-26T14:13:42.308Z,2.40
2022-08-26T14:16:13.378Z,2.97
2022-08-26T14:18:43.048Z,2.78
2022-08-26T14:21:13.387Z,3.15
2022-08-26T14:23:40.206Z,2.92
2022-08-26T14:26:11.002Z,2.83
2022-08-26T14:28:55.181Z,3.25
2022-08-26T14:31:24.175Z,2.88
2022-08-26T14:33:50.780Z,3.08
2022-08-26T14:36:29.108Z,3.50
2022-08-26T14:39:00.104Z,2.97
2022-08-26T14:41:27.109Z,2.90
2022-08-26T14:44:00.376Z,2.25
2022-08-26T14:46:30.183Z,2.63
2022-08-26T14:49:01.477Z,2.28
2022-08-26T14:51:28.501Z,2.33
2022-08-26T14:54:13.114Z,1.92
2022-08-26T14:56:44.791Z,2.33
2022-08-26T14:59:13.552Z,2.28
2022-08-26T15:01:40.086Z,2.35
2022-08-26T15:04:06.887Z,2.33
2022-08-26T15:06:34.753Z,2.20
2022-08-26T15:09:01.482Z,2.20
2022-08-26T15:11:27.952Z,2.13
2022-08-26T15:13:54.585Z,2.30
2022-08-26T15:16:22.658Z,2.20
2022-08-26T15:18:51.214Z,2.47
2022-08-26T15:21:19.364Z,2.58
2022-08-26T15:23:48.014Z,2.67
2022-08-26T15:26:15.540Z,2.70
2022-08-26T15:28:42.228Z,2.60
2022-08-26T15:31:09.349Z,2.70
2022-08-26T15:33:37.735Z,2.72
2022-08-26T15:36:05.754Z,2.42
2022-08-26T15:38:35.407Z,2.22
2022-08-26T15:41:04.308Z,2.05
2022-08-26T15:43:30.799Z,2.75
2022-08-26T15:45:57.781Z,2.22
2022-08-26T15:48:24.603Z,2.28
2022-08-26T15:50:53.812Z,2.50
2022-08-26T15:53:21.921Z,2.88
2022-08-26T15:55:48.599Z,3.00
2022-08-26T15:58:16.892Z,2.80
2022-08-26T16:00:44.218Z,2.50
2022-08-26T16:03:10.657Z,2.63
2022-08-26T16:05:41.634Z,3.00
2022-08-26T16:08:08.244Z,3.17
2022-08-26T16:10:37.052Z,3.20
2022-08-26T16:13:04.412Z,2.90
2022-08-26T16:15:34.375Z,2.80
2022-08-26T16:18:02.288Z,2.97
2022-08-26T16:20:30.071Z,3.10
2022-08-26T16:22:56.563Z,3.33
2022-08-26T16:25:23.097Z,3.25
2022-08-26T16:27:49.577Z,3.03
2022-08-26T16:30:16.444Z,3.30
2022-08-26T16:32:42.890Z,3.20
2022-08-26T16:35:09.579Z,3.15
2022-08-26T16:37:37.760Z,3.67
2022-08-26T16:40:07.185Z,3.53
2022-08-26T16:42:33.657Z,3.40
2022-08-26T16:45:00.142Z,3.00
2022-08-26T16:47:27.059Z,3.33
2022-08-26T16:49:53.643Z,3.45
2022-08-26T16:52:20.248Z,3.53
2022-08-26T16:54:47.838Z,3.53
2022-08-26T16:57:14.295Z,3.20
2022-08-26T16:59:41.729Z,2.90
2022-08-26T17:02:08.532Z,3.85
2022-08-26T17:04:34.990Z,3.85
2022-08-26T17:07:01.447Z,3.30
2022-08-26T17:09:27.984Z,3.10
2022-08-26T17:11:54.691Z,3.45
2022-08-26T17:14:21.447Z,3.30
2022-08-26T17:16:51.128Z,3.90
2022-08-26T17:19:19.351Z,2.92
2022-08-26T17:21:46.929Z,2.90
2022-08-26T17:24:13.997Z,3.47
2022-08-26T17:26:44.184Z,3.60
2022-08-26T17:29:14.922Z,3.20
2022-08-26T17:31:41.495Z,3.45
2022-08-26T17:34:10.004Z,3.10
2022-08-26T17:36:36.432Z,3.20
2022-08-26T17:39:03.501Z,3.30
2022-08-26T17:41:30.495Z,3.20
2022-08-26T17:43:57.149Z,3.08
2022-08-26T17:46:24.517Z,3.05
2022-08-26T17:48:51.085Z,3.58
2022-08-26T17:51:19.444Z,3.55
2022-08-26T17:53:46.732Z,3.58
2022-08-26T17:56:16.232Z,3.42
2022-08-26T17:58:50.928Z,3.90
2022-08-26T18:01:18.080Z,4.07
2022-08-26T18:03:44.543Z,3.65
2022-08-26T18:06:12.975Z,3.88
2022-08-26T18:08:40.706Z,3.95
2022-08-26T18:11:12.069Z,3.50
2022-08-26T18:13:45.837Z,3.97
2022-08-26T18:16:15.099Z,3.85
2022-08-26T18:18:42.218Z,4.05
2022-08-26T18:21:18.097Z,3.72
2022-08-26T18:23:45.989Z,4.20
2022-08-26T18:26:21.596Z,4.70
2022-08-26T18:28:48.373Z,5.47
2022-08-26T18:31:15.383Z,4.63
2022-08-26T18:33:43.040Z,4.28
2022-08-26T18:36:24.699Z,3.95
2022-08-26T18:38:52.104Z,4.30
2022-08-26T18:41:20.989Z,3.83
2022-08-26T18:43:50.348Z,3.70
2022-08-26T18:46:18.055Z,4.15
2022-08-26T18:48:44.589Z,4.00
2022-08-26T18:51:20.672Z,4.43
2022-08-26T18:53:47.573Z,3.92
2022-08-26T18:56:16.651Z,4.60
2022-08-26T18:58:45.191Z,3.95
2022-08-26T19:01:13.107Z,4.40
2022-08-26T19:03:39.796Z,4.25
2022-08-26T19:06:06.672Z,4.25
2022-08-26T19:08:33.086Z,4.68
2022-08-26T19:11:00.033Z,5.88
2022-08-26T19:13:26.651Z,5.53
2022-08-26T19:15:53.060Z,4.68
2022-08-26T19:18:19.903Z,4.70
2022-08-26T19:20:47.862Z,4.55
2022-08-26T19:23:30.813Z,4.25
2022-08-26T19:25:58.501Z,4.80
2022-08-26T19:28:24.958Z,4.93
2022-08-26T19:30:53.363Z,5.25
2022-08-26T19:33:20.104Z,5.13
2022-08-26T19:35:46.575Z,5.47
2022-08-26T19:38:13.992Z,4.85
2022-08-26T19:40:40.470Z,5.20
2022-08-26T19:43:07.157Z,5.15
2022-08-26T19:45:34.529Z,4.80
2022-08-26T19:48:01.104Z,5.45
2022-08-26T19:50:30.174Z,5.68
2022-08-26T19:52:57.391Z,5.53
2022-08-26T19:55:24.689Z,6.07
2022-08-26T19:57:52.358Z,6.80
2022-08-26T20:00:23.783Z,7.00
2022-08-26T20:02:51.047Z,6.28
2022-08-26T20:05:20.414Z,6.00
2022-08-26T20:07:48.122Z,6.68
2022-08-26T20:10:16.835Z,6.28
2022-08-26T20:12:43.489Z,7.28
2022-08-26T20:15:12.098Z,7.57
2022-08-26T20:17:39.260Z,6.70
2022-08-26T20:20:33.446Z,6.85
2022-08-26T20:23:01.335Z,6.88
2022-08-26T20:25:28.352Z,6.90
2022-08-26T20:27:54.823Z,7.13
2022-08-26T20:30:21.318Z,6.78
2022-08-26T20:32:48.366Z,6.65
2022-08-26T20:35:15.149Z,6.82
2022-08-26T20:37:42.852Z,6.07
2022-08-26T20:40:12.579Z,6.40
2022-08-26T20:42:39.095Z,5.93
2022-08-26T20:45:07.120Z,6.18
2022-08-26T20:47:33.743Z,6.03
2022-08-26T20:50:00.219Z,6.05
2022-08-26T20:52:26.640Z,5.65
2022-08-26T20:54:53.048Z,4.20
2022-08-26T20:57:19.544Z,2.97
2022-08-26T20:59:45.987Z,2.50
2022-08-26T21:02:12.423Z,2.40
2022-08-26T21:04:38.952Z,2.60
2022-08-26T21:07:05.545Z,3.10
2022-08-26T21:09:32.455Z,2.50
2022-08-26T21:11:59.176Z,2.63
2022-08-26T21:14:26.139Z,2.10
2022-08-26T21:16:52.932Z,2.22
2022-08-26T21:19:19.512Z,1.60
2022-08-26T21:21:47.977Z,1.42
2022-08-26T21:24:14.563Z,1.30
2022-08-26T21:26:41.463Z,1.55
2022-08-26T21:29:09.733Z,1.92
2022-08-26T21:31:39.975Z,1.40
2022-08-26T21:34:09.063Z,1.83
2022-08-26T21:36:35.949Z,1.35
2022-08-26T21:39:02.433Z,1.63
2022-08-26T21:41:28.876Z,2.17
2022-08-26T21:43:59.146Z,2.08
2022-08-26T21:46:29.025Z,2.22
2022-08-26T21:48:56.829Z,1.98
2022-08-26T21:51:25.700Z,1.50
2022-08-26T21:53:52.992Z,1.60
2022-08-26T21:56:20.696Z,1.98
2022-08-26T21:58:47.250Z,1.90
2022-08-26T22:01:17.716Z,1.83
2022-08-26T22:03:47.623Z,1.83
2022-08-26T22:06:19.591Z,1.55
2022-08-26T22:08:46.095Z,2.20
2022-08-26T22:11:13.217Z,2.15
2022-08-26T22:13:41.548Z,2.67
2022-08-26T22:16:08.699Z,2.33
2022-08-26T22:18:36.056Z,2.10
2022-08-26T22:21:06.524Z,2.15
2022-08-26T22:23:32.996Z,2.35
2022-08-26T22:26:00.013Z,2.22
2022-08-26T22:28:28.136Z,2.63
2022-08-26T22:30:55.628Z,2.20
2022-08-26T22:33:22.908Z,2.78
2022-08-26T22:35:51.914Z,2.58
2022-08-26T22:38:19.117Z,2.47
2022-08-26T22:40:50.817Z,2.92
2022-08-26T22:43:18.878Z,2.80
2022-08-26T22:45:47.316Z,2.42
2022-08-26T22:48:16.771Z,2.40
2022-08-26T22:50:45.756Z,2.40
2022-08-26T22:53:12.908Z,2.40
2022-08-26T22:55:39.398Z,2.20
2022-08-26T22:58:06.244Z,1.90
2022-08-26T23:00:34.223Z,1.85
2022-08-26T23:03:02.134Z,1.90
2022-08-26T23:05:29.511Z,1.67
2022-08-26T23:07:56.736Z,1.73
2022-08-26T23:10:23.333Z,1.48
2022-08-26T23:12:50.494Z,1.70
2022-08-26T23:15:16.905Z,1.80
2022-08-26T23:17:44.956Z,2.03
2022-08-26T23:20:13.514Z,1.85
2022-08-26T23:22:40.263Z,2.53
2022-08-26T23:25:09.696Z,2.30
2022-08-26T23:27:39.255Z,2.10
2022-08-26T23:30:15.237Z,2.50
2022-08-26T23:32:41.780Z,2.35
2022-08-26T23:35:09.340Z,3.20
2022-08-26T23:37:42.588Z,2.95
2022-08-26T23:40:17.075Z,2.92
2022-08-26T23:42:44.278Z,2.80
2022-08-26T23:45:12.815Z,2.92
2022-08-26T23:47:40.865Z,2.53
2022-08-26T23:50:08.604Z,2.55
2022-08-26T23:52:53.910Z,2.83
2022-08-26T23:55:20.525Z,3.00
2022-08-26T23:57:46.948Z,2.83
